sensor_id;sensor_type;location;lat;lon;timestamp;pressure;altitude;pressure_sealevel;temperature;humidity
17505;BME280;8870;50.950;11.762;2023-01-10T00:00:45;97690.56;;;4.35;100.00
17505;BME280;8870;50.950;11.762;2023-01-10T00:06:18;97697.16;;;4.40;100.00
17505;BME280;8870;50.950;11.762;2023-01-10T00:11:39;97682.69;;;4.43;100.00
17505;BME280;8870;50.950;11.762;2023-01-10T00:17:24;97703.19;;;4.42;100.00
17505;BME280;8870;50.950;11.762;2023-01-10T00:22:42;97710.22;;;4.43;100.00
17505;BME280;8870;50.950;11.762;2023-01-10T00:28:17;97717.50;;;4.41;100.00
17505;BME280;8870;50.950;11.762;2023-01-10T00:33:38;97726.50;;;4.40;100.00
17505;BME280;8870;50.950;11.762;2023-01-10T00:39:10;97741.09;;;4.46;100.00
17505;BME280;8870;50.950;11.762;2023-01-10T00:44:31;97758.78;;;4.47;100.00
17505;BME280;8870;50.950;11.762;2023-01-10T00:50:04;97747.53;;;4.53;100.00
17505;BME280;8870;50.950;11.762;2023-01-10T00:55:29;97762.16;;;4.49;100.00
17505;BME280;8870;50.950;11.762;2023-01-10T01:01:04;97771.16;;;4.48;100.00
17505;BME280;8870;50.950;11.762;2023-01-10T01:06:22;97784.91;;;4.53;100.00
17505;BME280;8870;50.950;11.762;2023-01-10T01:11:53;97804.44;;;4.54;100.00
17505;BME280;8870;50.950;11.762;2023-01-10T01:17:14;97801.03;;;4.52;100.00
17505;BME280;8870;50.950;11.762;2023-01-10T01:22:45;97794.44;;;4.46;100.00
17505;BME280;8870;50.950;11.762;2023-01-10T01:28:03;97806.50;;;4.40;100.00
17505;BME280;8870;50.950;11.762;2023-01-10T01:33:37;97817.72;;;4.34;100.00
17505;BME280;8870;50.950;11.762;2023-01-10T01:38:56;97833.09;;;4.11;100.00
17505;BME280;8870;50.950;11.762;2023-01-10T01:44:29;97843.09;;;3.88;100.00
17505;BME280;8870;50.950;11.762;2023-01-10T01:49:51;97853.84;;;3.76;100.00
17505;BME280;8870;50.950;11.762;2023-01-10T01:55:24;97862.94;;;3.74;100.00
17505;BME280;8870;50.950;11.762;2023-01-10T02:00:44;97874.84;;;3.69;100.00
17505;BME280;8870;50.950;11.762;2023-01-10T02:06:18;97875.81;;;3.68;100.00
17505;BME280;8870;50.950;11.762;2023-01-10T02:11:38;97883.19;;;3.65;100.00
17505;BME280;8870;50.950;11.762;2023-01-10T02:17:09;97881.41;;;3.65;100.00
17505;BME280;8870;50.950;11.762;2023-01-10T02:23:00;97881.41;;;3.65;100.00
17505;BME280;8870;50.950;11.762;2023-01-10T02:29:07;97903.03;;;3.51;100.00
17505;BME280;8870;50.950;11.762;2023-01-10T02:34:56;97912.47;;;3.55;100.00
17505;BME280;8870;50.950;11.762;2023-01-10T02:40:21;97919.19;;;3.59;100.00
17505;BME280;8870;50.950;11.762;2023-01-10T02:45:58;97924.53;;;3.59;100.00
17505;BME280;8870;50.950;11.762;2023-01-10T02:51:22;97928.78;;;3.62;100.00
17505;BME280;8870;50.950;11.762;2023-01-10T02:57:23;97928.78;;;3.62;100.00
17505;BME280;8870;50.950;11.762;2023-01-10T03:03:12;97936.69;;;3.52;100.00
17505;BME280;8870;50.950;11.762;2023-01-10T03:08:37;97937.06;;;3.47;100.00
17505;BME280;8870;50.950;11.762;2023-01-10T03:14:15;97964.47;;;3.59;100.00
17505;BME280;8870;50.950;11.762;2023-01-10T03:19:37;97956.13;;;3.64;100.00
17505;BME280;8870;50.950;11.762;2023-01-10T03:25:14;97975.06;;;3.70;100.00
17505;BME280;8870;50.950;11.762;2023-01-10T03:30:39;97977.44;;;3.85;100.00
17505;BME280;8870;50.950;11.762;2023-01-10T03:36:19;97983.63;;;3.85;100.00
17505;BME280;8870;50.950;11.762;2023-01-10T03:41:48;97994.88;;;3.89;100.00
17505;BME280;8870;50.950;11.762;2023-01-10T03:47:25;98012.16;;;3.95;100.00
17505;BME280;8870;50.950;11.762;2023-01-10T03:52:47;98029.19;;;4.04;100.00
17505;BME280;8870;50.950;11.762;2023-01-10T03:58:20;98031.31;;;4.10;100.00
17505;BME280;8870;50.950;11.762;2023-01-10T04:03:41;98060.41;;;4.13;100.00
17505;BME280;8870;50.950;11.762;2023-01-10T04:09:13;98060.59;;;4.21;100.00
17505;BME280;8870;50.950;11.762;2023-01-10T04:14:37;98069.31;;;4.23;100.00
17505;BME280;8870;50.950;11.762;2023-01-10T04:20:10;98072.31;;;4.30;100.00
17505;BME280;8870;50.950;11.762;2023-01-10T04:25:29;98079.41;;;4.41;100.00
17505;BME280;8870;50.950;11.762;2023-01-10T04:31:03;98084.75;;;4.41;100.00
17505;BME280;8870;50.950;11.762;2023-01-10T04:36:28;98099.09;;;4.50;100.00
17505;BME280;8870;50.950;11.762;2023-01-10T04:42:00;98114.59;;;4.56;100.00
17505;BME280;8870;50.950;11.762;2023-01-10T04:47:21;98120.94;;;4.65;100.00
17505;BME280;8870;50.950;11.762;2023-01-10T04:52:52;98130.56;;;4.77;100.00
17505;BME280;8870;50.950;11.762;2023-01-10T04:58:10;98134.94;;;4.78;100.00
17505;BME280;8870;50.950;11.762;2023-01-10T05:03:46;98133.78;;;4.71;100.00
17505;BME280;8870;50.950;11.762;2023-01-10T05:09:04;98163.28;;;4.69;100.00
17505;BME280;8870;50.950;11.762;2023-01-10T05:14:36;98162.66;;;4.66;100.00
17505;BME280;8870;50.950;11.762;2023-01-10T05:19:57;98169.50;;;4.58;100.00
17505;BME280;8870;50.950;11.762;2023-01-10T05:25:28;98191.25;;;4.54;100.00
17505;BME280;8870;50.950;11.762;2023-01-10T05:30:46;98201.56;;;4.47;100.00
17505;BME280;8870;50.950;11.762;2023-01-10T05:36:20;98225.19;;;4.52;100.00
17505;BME280;8870;50.950;11.762;2023-01-10T05:41:38;98242.91;;;4.53;100.00
17505;BME280;8870;50.950;11.762;2023-01-10T05:47:10;98258.81;;;4.43;100.00
17505;BME280;8870;50.950;11.762;2023-01-10T05:52:31;98274.47;;;4.36;100.00
17505;BME280;8870;50.950;11.762;2023-01-10T05:58:07;98292.31;;;4.36;100.00
17505;BME280;8870;50.950;11.762;2023-01-10T06:03:25;98302.50;;;4.30;100.00
17505;BME280;8870;50.950;11.762;2023-01-10T06:09:00;98309.16;;;4.25;100.00
17505;BME280;8870;50.950;11.762;2023-01-10T06:14:18;98325.53;;;4.20;100.00
17505;BME280;8870;50.950;11.762;2023-01-10T06:19:49;98338.28;;;4.16;100.00
17505;BME280;8870;50.950;11.762;2023-01-10T06:25:11;98348.09;;;4.16;100.00
17505;BME280;8870;50.950;11.762;2023-01-10T06:30:42;98358.50;;;4.19;100.00
17505;BME280;8870;50.950;11.762;2023-01-10T06:36:01;98364.22;;;4.14;100.00
17505;BME280;8870;50.950;11.762;2023-01-10T09:16:43;98581.00;;;4.62;100.00
17505;BME280;8870;50.950;11.762;2023-01-10T09:22:15;98577.88;;;4.68;100.00
17505;BME280;8870;50.950;11.762;2023-01-10T09:27:33;98582.84;;;4.73;100.00
17505;BME280;8870;50.950;11.762;2023-01-10T09:33:07;98603.34;;;4.72;100.00
17505;BME280;8870;50.950;11.762;2023-01-10T09:38:25;98617.78;;;4.81;100.00
17505;BME280;8870;50.950;11.762;2023-01-10T09:44:01;98630.19;;;4.82;100.00
17505;BME280;8870;50.950;11.762;2023-01-10T09:49:33;98632.63;;;4.85;100.00
17505;BME280;8870;50.950;11.762;2023-01-10T09:55:17;98640.88;;;4.93;100.00
17505;BME280;8870;50.950;11.762;2023-01-10T10:00:42;98638.69;;;4.99;100.00
17505;BME280;8870;50.950;11.762;2023-01-10T10:06:17;98633.84;;;5.04;100.00
17505;BME280;8870;50.950;11.762;2023-01-10T10:11:51;98654.22;;;5.05;100.00
17505;BME280;8870;50.950;11.762;2023-01-10T10:17:36;98639.66;;;5.09;100.00
17505;BME280;8870;50.950;11.762;2023-01-10T10:23:24;98595.59;;;5.15;100.00
17505;BME280;8870;50.950;11.762;2023-01-10T10:29:05;98631.38;;;5.23;100.00
17505;BME280;8870;50.950;11.762;2023-01-10T10:34:42;98619.41;;;5.29;100.00
17505;BME280;8870;50.950;11.762;2023-01-10T10:40:15;98603.00;;;5.34;100.00
17505;BME280;8870;50.950;11.762;2023-01-10T10:45:44;98614.50;;;5.46;100.00
17505;BME280;8870;50.950;11.762;2023-01-10T10:51:14;98622.38;;;5.47;100.00
17505;BME280;8870;50.950;11.762;2023-01-10T10:56:38;98610.97;;;5.57;100.00
17505;BME280;8870;50.950;11.762;2023-01-10T11:02:20;98622.25;;;5.60;100.00
17505;BME280;8870;50.950;11.762;2023-01-10T11:07:38;98633.31;;;5.67;100.00
17505;BME280;8870;50.950;11.762;2023-01-10T11:13:16;98637.78;;;5.66;100.00
17505;BME280;8870;50.950;11.762;2023-01-10T11:18:44;98644.09;;;5.65;100.00
17505;BME280;8870;50.950;11.762;2023-01-10T11:24:34;98639.25;;;5.59;100.00
17505;BME280;8870;50.950;11.762;2023-01-10T11:29:58;98642.53;;;5.63;100.00
17505;BME280;8870;50.950;11.762;2023-01-10T11:35:32;98640.25;;;5.58;100.00
17505;BME280;8870;50.950;11.762;2023-01-10T11:40:53;98663.31;;;5.59;100.00
17505;BME280;8870;50.950;11.762;2023-01-10T11:46:28;98652.28;;;5.52;100.00
17505;BME280;8870;50.950;11.762;2023-01-10T11:51:48;98653.09;;;5.53;100.00
17505;BME280;8870;50.950;11.762;2023-01-10T11:57:22;98652.28;;;5.52;100.00
17505;BME280;8870;50.950;11.762;2023-01-10T12:02:45;98656.50;;;5.55;100.00
17505;BME280;8870;50.950;11.762;2023-01-10T12:08:27;98662.97;;;5.52;100.00
17505;BME280;8870;50.950;11.762;2023-01-10T12:13:48;98656.88;;;5.62;100.00
17505;BME280;8870;50.950;11.762;2023-01-10T12:19:22;98663.69;;;5.66;100.00
17505;BME280;8870;50.950;11.762;2023-01-10T12:24:53;98670.34;;;5.71;100.00
17505;BME280;8870;50.950;11.762;2023-01-10T12:30:16;98673.63;;;5.75;100.00
17505;BME280;8870;50.950;11.762;2023-01-10T12:35:54;98668.03;;;5.78;100.00
17505;BME280;8870;50.950;11.762;2023-01-10T12:41:18;98660.38;;;5.85;100.00
17505;BME280;8870;50.950;11.762;2023-01-10T12:47:16;98669.22;;;5.85;100.00
17505;BME280;8870;50.950;11.762;2023-01-10T12:52:42;98663.13;;;5.83;100.00
17505;BME280;8870;50.950;11.762;2023-01-10T12:58:19;98654.03;;;5.86;100.00
17505;BME280;8870;50.950;11.762;2023-01-10T13:03:39;98656.72;;;5.86;100.00
17505;BME280;8870;50.950;11.762;2023-01-10T13:09:17;98670.31;;;5.83;100.00
17505;BME280;8870;50.950;11.762;2023-01-10T13:14:42;98686.59;;;5.80;100.00
17505;BME280;8870;50.950;11.762;2023-01-10T13:20:37;98682.38;;;5.77;100.00
17505;BME280;8870;50.950;11.762;2023-01-10T13:26:00;98687.94;;;5.74;100.00
17505;BME280;8870;50.950;11.762;2023-01-10T13:31:33;98678.59;;;5.68;100.00
17505;BME280;8870;50.950;11.762;2023-01-10T13:36:55;98695.03;;;5.64;100.00
17505;BME280;8870;50.950;11.762;2023-01-10T13:42:31;98696.22;;;5.60;100.00
17505;BME280;8870;50.950;11.762;2023-01-10T13:48:12;98705.34;;;5.57;100.00
17505;BME280;8870;50.950;11.762;2023-01-10T13:53:56;98696.50;;;5.57;100.00
17505;BME280;8870;50.950;11.762;2023-01-10T14:05:32;98701.13;;;5.43;100.00
17505;BME280;8870;50.950;11.762;2023-01-10T14:11:04;98694.91;;;5.43;100.00
17505;BME280;8870;50.950;11.762;2023-01-10T14:16:38;98692.22;;;5.43;100.00
17505;BME280;8870;50.950;11.762;2023-01-10T14:22:01;98701.13;;;5.43;100.00
17505;BME280;8870;50.950;11.762;2023-01-10T14:27:41;98725.41;;;5.40;100.00
17505;BME280;8870;50.950;11.762;2023-01-10T14:33:04;98718.94;;;5.43;100.00
17505;BME280;8870;50.950;11.762;2023-01-10T14:38:39;98712.91;;;5.40;100.00
17505;BME280;8870;50.950;11.762;2023-01-10T14:44:00;98702.44;;;5.37;100.00
17505;BME280;8870;50.950;11.762;2023-01-10T14:49:36;98708.91;;;5.35;100.00
17505;BME280;8870;50.950;11.762;2023-01-10T14:55:12;98706.69;;;5.29;100.00
17505;BME280;8870;50.950;11.762;2023-01-10T15:00:44;98698.44;;;5.20;100.00
17505;BME280;8870;50.950;11.762;2023-01-10T15:06:11;98704.13;;;5.16;100.00
17505;BME280;8870;50.950;11.762;2023-01-10T15:11:47;98700.84;;;5.12;100.00
17505;BME280;8870;50.950;11.762;2023-01-10T15:17:17;98704.72;;;5.08;100.00
17505;BME280;8870;50.950;11.762;2023-01-10T15:22:54;98713.94;;;5.04;100.00
17505;BME280;8870;50.950;11.762;2023-01-10T15:28:17;98696.22;;;5.03;100.00
17505;BME280;8870;50.950;11.762;2023-01-10T15:33:49;98687.72;;;4.98;100.00
17505;BME280;8870;50.950;11.762;2023-01-10T15:39:17;98678.47;;;4.90;100.00
17505;BME280;8870;50.950;11.762;2023-01-10T15:44:53;98678.59;;;4.77;100.00
17505;BME280;8870;50.950;11.762;2023-01-10T15:50:21;98685.03;;;4.75;100.00
17505;BME280;8870;50.950;11.762;2023-01-10T15:55:55;98675.66;;;4.69;100.00
17505;BME280;8870;50.950;11.762;2023-01-10T16:01:29;98678.44;;;4.68;100.00
17505;BME280;8870;50.950;11.762;2023-01-10T16:07:05;98683.78;;;4.68;100.00
17505;BME280;8870;50.950;11.762;2023-01-10T16:12:31;98684.72;;;4.67;100.00
17505;BME280;8870;50.950;11.762;2023-01-10T16:18:18;98688.09;;;4.57;100.00
17505;BME280;8870;50.950;11.762;2023-01-10T16:23:49;98681.69;;;4.60;100.00
17505;BME280;8870;50.950;11.762;2023-01-10T16:29:08;98664.84;;;4.59;100.00
17505;BME280;8870;50.950;11.762;2023-01-10T16:34:44;98671.97;;;4.59;100.00
17505;BME280;8870;50.950;11.762;2023-01-10T16:40:14;98669.44;;;4.57;100.00
17505;BME280;8870;50.950;11.762;2023-01-10T16:45:48;98673.53;;;4.50;100.00
17505;BME280;8870;50.950;11.762;2023-01-10T16:51:15;98655.56;;;4.41;100.00
17505;BME280;8870;50.950;11.762;2023-01-10T16:56:48;98659.88;;;4.30;100.00
17505;BME280;8870;50.950;11.762;2023-01-10T17:02:14;98662.50;;;4.19;100.00
17505;BME280;8870;50.950;11.762;2023-01-10T17:07:49;98663.31;;;4.08;100.00
17505;BME280;8870;50.950;11.762;2023-01-10T17:13:08;98665.81;;;3.98;100.00
17505;BME280;8870;50.950;11.762;2023-01-10T17:18:40;98660.94;;;3.92;100.00
17505;BME280;8870;50.950;11.762;2023-01-10T17:24:16;98656.16;;;3.84;100.00
17505;BME280;8870;50.950;11.762;2023-01-10T17:29:35;98654.19;;;3.75;100.00
17505;BME280;8870;50.950;11.762;2023-01-10T17:35:08;98651.22;;;3.67;100.00
17505;BME280;8870;50.950;11.762;2023-01-10T17:40:29;98656.13;;;3.60;100.00
17505;BME280;8870;50.950;11.762;2023-01-10T17:46:01;98658.16;;;3.57;100.00
17505;BME280;8870;50.950;11.762;2023-01-10T17:51:23;98658.63;;;3.50;100.00
17505;BME280;8870;50.950;11.762;2023-01-10T17:57:02;98654.34;;;3.48;100.00
17505;BME280;8870;50.950;11.762;2023-01-10T18:02:35;98644.03;;;3.43;100.00
17505;BME280;8870;50.950;11.762;2023-01-10T18:08:21;98636.38;;;3.38;100.00
17505;BME280;8870;50.950;11.762;2023-01-10T18:13:42;98635.53;;;3.38;100.00
17505;BME280;8870;50.950;11.762;2023-01-10T18:19:16;98642.78;;;3.36;100.00
17505;BME280;8870;50.950;11.762;2023-01-10T18:24:34;98631.50;;;3.32;100.00
17505;BME280;8870;50.950;11.762;2023-01-10T18:30:10;98627.22;;;3.30;100.00
17505;BME280;8870;50.950;11.762;2023-01-10T18:35:32;98623.72;;;3.29;100.00
17505;BME280;8870;50.950;11.762;2023-01-10T18:41:04;98614.91;;;3.29;100.00
17505;BME280;8870;50.950;11.762;2023-01-10T18:46:35;98619.81;;;3.22;100.00
17505;BME280;8870;50.950;11.762;2023-01-10T18:52:06;98610.34;;;3.18;100.00
17505;BME280;8870;50.950;11.762;2023-01-10T18:57:25;98611.41;;;3.15;100.00
17505;BME280;8870;50.950;11.762;2023-01-10T19:03:06;98600.97;;;3.12;100.00
17505;BME280;8870;50.950;11.762;2023-01-10T19:08:24;98596.50;;;3.13;100.00
17505;BME280;8870;50.950;11.762;2023-01-10T19:13:55;98588.09;;;3.19;100.00
17505;BME280;8870;50.950;11.762;2023-01-10T19:25:47;98575.59;;;3.32;100.00
17505;BME280;8870;50.950;11.762;2023-01-10T19:31:24;98576.31;;;3.34;100.00
17505;BME280;8870;50.950;11.762;2023-01-10T19:36:47;98568.22;;;3.36;100.00
17505;BME280;8870;50.950;11.762;2023-01-10T19:42:24;98562.28;;;3.32;100.00
17505;BME280;8870;50.950;11.762;2023-01-10T19:47:42;98560.34;;;3.34;100.00
17505;BME280;8870;50.950;11.762;2023-01-10T19:53:14;98555.03;;;3.34;100.00
17505;BME280;8870;50.950;11.762;2023-01-10T19:58:47;98541.81;;;3.33;100.00
17505;BME280;8870;50.950;11.762;2023-01-10T20:04:19;98547.03;;;3.34;100.00
17505;BME280;8870;50.950;11.762;2023-01-10T20:09:38;98546.03;;;3.35;100.00
17505;BME280;8870;50.950;11.762;2023-01-10T20:15:13;98528.88;;;3.39;100.00
17505;BME280;8870;50.950;11.762;2023-01-10T20:20:38;98528.16;;;3.37;100.00
17505;BME280;8870;50.950;11.762;2023-01-10T20:26:12;98520.28;;;3.36;100.00
17505;BME280;8870;50.950;11.762;2023-01-10T20:31:34;98512.16;;;3.37;100.00
17505;BME280;8870;50.950;11.762;2023-01-10T20:37:08;98505.13;;;3.36;100.00
17505;BME280;8870;50.950;11.762;2023-01-10T20:42:26;98508.75;;;3.35;100.00
17505;BME280;8870;50.950;11.762;2023-01-10T20:48:00;98507.09;;;3.34;100.00
17505;BME280;8870;50.950;11.762;2023-01-10T20:53:18;98512.16;;;3.37;100.00
17505;BME280;8870;50.950;11.762;2023-01-10T20:58:51;98501.28;;;3.41;100.00
17505;BME280;8870;50.950;11.762;2023-01-10T21:04:12;98487.84;;;3.42;100.00
17505;BME280;8870;50.950;11.762;2023-01-10T21:09:43;98484.88;;;3.47;100.00
17505;BME280;8870;50.950;11.762;2023-01-10T21:15:02;98473.97;;;3.50;100.00
17505;BME280;8870;50.950;11.762;2023-01-10T21:20:39;98471.59;;;3.58;100.00
17505;BME280;8870;50.950;11.762;2023-01-10T21:26:12;98464.97;;;3.64;100.00
17505;BME280;8870;50.950;11.762;2023-01-10T21:31:31;98460.25;;;3.67;100.00
17505;BME280;8870;50.950;11.762;2023-01-10T21:37:05;98455.16;;;3.76;100.00
17505;BME280;8870;50.950;11.762;2023-01-10T21:42:24;98444.28;;;3.79;100.00
17505;BME280;8870;50.950;11.762;2023-01-10T21:48:04;98437.50;;;3.86;100.00
17505;BME280;8870;50.950;11.762;2023-01-10T21:53:24;98424.06;;;3.88;100.00
17505;BME280;8870;50.950;11.762;2023-01-10T21:58:56;98423.81;;;3.91;100.00
17505;BME280;8870;50.950;11.762;2023-01-10T22:04:16;98425.41;;;3.93;100.00
17505;BME280;8870;50.950;11.762;2023-01-10T22:09:50;98408.44;;;3.94;100.00
17505;BME280;8870;50.950;11.762;2023-01-10T22:15:10;98400.19;;;3.97;100.00
17505;BME280;8870;50.950;11.762;2023-01-10T22:20:43;98388.56;;;3.98;100.00
17505;BME280;8870;50.950;11.762;2023-01-10T22:26:19;98370.78;;;3.99;100.00
17505;BME280;8870;50.950;11.762;2023-01-10T22:31:37;98367.00;;;4.01;100.00
17505;BME280;8870;50.950;11.762;2023-01-10T22:37:09;98352.72;;;4.03;100.00
17505;BME280;8870;50.950;11.762;2023-01-10T22:42:30;98352.47;;;4.06;100.00
17505;BME280;8870;50.950;11.762;2023-01-10T22:48:02;98337.91;;;4.10;100.00
17505;BME280;8870;50.950;11.762;2023-01-10T22:53:20;98334.28;;;4.11;100.00
17505;BME280;8870;50.950;11.762;2023-01-10T22:58:54;98329.81;;;4.11;100.00
17505;BME280;8870;50.950;11.762;2023-01-10T23:04:12;98326.88;;;4.14;100.00
17505;BME280;8870;50.950;11.762;2023-01-10T23:09:44;98321.44;;;4.16;100.00
17505;BME280;8870;50.950;11.762;2023-01-10T23:15:06;98325.69;;;4.19;100.00
17505;BME280;8870;50.950;11.762;2023-01-10T23:20:38;98331.97;;;4.18;100.00
17505;BME280;8870;50.950;11.762;2023-01-10T23:26:10;98324.56;;;4.21;100.00
17505;BME280;8870;50.950;11.762;2023-01-10T23:31:31;98316.56;;;4.21;100.00
17505;BME280;8870;50.950;11.762;2023-01-10T23:37:03;98314.03;;;4.20;100.00
17505;BME280;8870;50.950;11.762;2023-01-10T23:42:22;98304.34;;;4.19;100.00
17505;BME280;8870;50.950;11.762;2023-01-10T23:47:55;98301.31;;;4.12;100.00
17505;BME280;8870;50.950;11.762;2023-01-10T23:53:28;98297.19;;;4.08;100.00
17505;BME280;8870;50.950;11.762;2023-01-10T23:58:50;98279.78;;;4.04;100.00
